Time;durP1;ratioP1;P1;durP2;ratioP2;P2;SDS_P1;SDS_P2;PMS_P1;PMS_P2;Temp;Humidity;BMP_temperature;BMP_pressure;BME280_temperature;BME280_humidity;BME280_pressure;Samples;Min_cycle;Max_cycle;Signal;HPM_P1;HPM_P2
2023/11/19 00:00:17;;;;;;;44.40;28.30;;;;;;;1.48;84.51;100719.25;103320;1253;96456;-67
2023/11/19 00:03:05;;;;;;;44.10;26.20;;;;;;;1.47;84.50;100720.78;103362;1254;138346;-69
2023/11/19 00:05:32;;;;;;;40.60;27.30;;;;;;;1.52;84.55;100722.55;103413;1257;96463;-68
2023/11/19 00:07:59;;;;;;;42.20;28.60;;;;;;;1.60;84.76;100718.70;102579;1257;1003692;-68
2023/11/19 00:10:26;;;;;;;47.30;29.10;;;;;;;1.68;84.83;100717.42;103363;1253;107306;-69
2023/11/19 00:12:53;;;;;;;47.30;30.90;;;;;;;1.76;84.57;100724.17;103572;1257;96563;-68
2023/11/19 00:15:20;;;;;;;48.00;32.10;;;;;;;1.78;84.49;100728.66;103316;1254;137644;-68
2023/11/19 00:17:48;;;;;;;51.70;33.00;;;;;;;1.78;84.38;100731.23;101916;1254;1003648;-69
2023/11/19 00:20:17;;;;;;;49.00;32.30;;;;;;;1.76;84.21;100727.78;102412;1253;1003620;-68
2023/11/19 00:22:48;;;;;;;51.20;32.40;;;;;;;1.73;83.97;100724.33;103700;1253;106809;-68
2023/11/19 00:25:16;;;;;;;48.30;30.20;;;;;;;1.67;84.10;100717.93;103531;1253;97014;-68
2023/11/19 00:27:44;;;;;;;44.00;29.40;;;;;;;1.66;84.36;100709.52;103543;1254;138749;-67
2023/11/19 00:30:13;;;;;;;43.20;28.50;;;;;;;1.65;84.24;100706.76;103458;1253;96598;-69
2023/11/19 00:32:41;;;;;;;44.70;28.70;;;;;;;1.67;84.24;100704.56;103460;1254;138258;-67
2023/11/19 00:35:10;;;;;;;45.50;28.70;;;;;;;1.73;84.47;100706.33;103479;1253;108130;-68
2023/11/19 00:37:36;;;;;;;41.90;28.00;;;;;;;1.81;84.37;100699.56;103635;1253;96473;-68
2023/11/19 00:40:05;;;;;;;47.70;30.00;;;;;;;1.84;84.15;100692.23;103377;1253;107178;-67
2023/11/19 00:42:32;;;;;;;44.10;30.30;;;;;;;1.85;83.90;100689.83;103671;1253;96450;-67
2023/11/19 00:44:59;;;;;;;48.10;30.40;;;;;;;1.84;83.94;100688.45;103174;1254;137682;-68
2023/11/19 00:47:26;;;;;;;47.20;30.80;;;;;;;1.87;84.18;100684.36;103462;1253;107238;-68
2023/11/19 00:49:53;;;;;;;51.00;32.00;;;;;;;1.88;83.87;100681.63;102790;1253;1003495;-67
2023/11/19 00:52:21;;;;;;;48.00;31.30;;;;;;;1.87;83.90;100681.27;103893;1253;107304;-67
2023/11/19 00:54:49;;;;;;;48.00;30.00;;;;;;;1.84;83.97;100678.17;103463;1253;96466;-68
2023/11/19 00:57:16;;;;;;;45.30;29.70;;;;;;;1.81;83.81;100675.23;103422;1253;138181;-68
2023/11/19 00:59:45;;;;;;;46.40;28.50;;;;;;;1.80;83.87;100665.96;102650;1257;1002735;-69
2023/11/19 01:02:14;;;;;;;45.10;28.50;;;;;;;1.83;83.97;100652.78;102389;1256;1003496;-68
2023/11/19 01:04:40;;;;;;;47.00;30.20;;;;;;;1.83;83.65;100646.27;102075;1254;1003237;-65
2023/11/19 01:07:12;;;;;;;45.50;30.20;;;;;;;1.79;83.52;100642.80;103959;1253;96375;-66
2023/11/19 01:09:39;;;;;;;49.10;31.30;;;;;;;1.77;83.66;100640.88;103480;1253;138002;-68
2023/11/19 01:12:08;;;;;;;49.90;31.00;;;;;;;1.76;83.50;100640.53;103392;1253;107680;-67
2023/11/19 01:14:36;;;;;;;46.00;30.70;;;;;;;1.74;83.39;100635.70;103840;1253;138213;-68
2023/11/19 01:17:04;;;;;;;52.50;32.10;;;;;;;1.70;83.50;100634.98;103355;1253;108627;-67
2023/11/19 01:19:31;;;;;;;50.90;31.20;;;;;;;1.64;83.35;100628.92;103361;1253;96515;-68
2023/11/19 01:21:58;;;;;;;46.50;29.20;;;;;;;1.57;83.53;100621.13;103125;1253;139203;-67
2023/11/19 01:24:28;;;;;;;43.10;28.80;;;;;;;1.54;83.88;100615.45;103224;1257;108082;-66
2023/11/19 01:26:57;;;;;;;46.10;28.60;;;;;;;1.51;83.73;100611.48;103260;1253;138534;-66
2023/11/19 01:29:24;;;;;;;46.30;30.40;;;;;;;1.52;83.98;100611.84;103399;1257;107899;-67
2023/11/19 01:31:52;;;;;;;47.70;30.00;;;;;;;1.61;84.42;100620.34;103249;1257;137869;-68
2023/11/19 01:34:19;;;;;;;47.30;31.30;;;;;;;1.67;84.29;100626.73;103519;1253;108663;-68
2023/11/19 01:36:48;;;;;;;49.20;31.90;;;;;;;1.71;84.25;100626.25;102668;1253;1002623;-66
2023/11/19 01:39:17;;;;;;;49.80;31.30;;;;;;;1.75;84.34;100628.17;103347;1254;137836;-68
2023/11/19 01:41:44;;;;;;;51.30;32.90;;;;;;;1.72;83.99;100623.35;103397;1257;107877;-68
2023/11/19 01:44:12;;;;;;;55.30;33.30;;;;;;;1.71;84.10;100618.70;103192;1253;138545;-66
2023/11/19 01:46:41;;;;;;;49.80;30.30;;;;;;;1.65;83.93;100607.17;102519;1253;1003356;-67
2023/11/19 01:49:08;;;;;;;50.20;29.80;;;;;;;1.61;83.93;100606.27;103305;1254;108335;-66
2023/11/19 01:51:36;;;;;;;47.40;29.30;;;;;;;1.60;83.89;100598.37;103274;1253;138379;-66
2023/11/19 01:54:03;;;;;;;46.10;30.10;;;;;;;1.60;84.06;100594.95;102679;1253;1003475;-67
2023/11/19 01:56:31;;;;;;;46.30;30.80;;;;;;;1.61;83.89;100588.95;103300;1257;138502;-67
2023/11/19 01:58:59;;;;;;;50.60;32.10;;;;;;;1.62;84.22;100587.95;102818;1253;1003515;-67
2023/11/19 02:01:26;;;;;;;49.00;31.50;;;;;;;1.61;83.97;100582.97;102655;1257;1003028;-67
2023/11/19 02:03:53;;;;;;;50.70;32.50;;;;;;;1.61;84.14;100579.18;103211;1253;138356;-67
2023/11/19 02:06:21;;;;;;;50.80;33.40;;;;;;;1.61;84.18;100581.41;103340;1253;107035;-66
2023/11/19 02:08:48;;;;;;;53.20;34.30;;;;;;;1.59;84.17;100578.48;103244;1257;137764;-67
2023/11/19 02:11:15;;;;;;;51.00;32.40;;;;;;;1.54;83.99;100573.80;103297;1253;109412;-68
2023/11/19 02:13:43;;;;;;;56.00;33.10;;;;;;;1.48;84.07;100572.73;103272;1253;138732;-67
2023/11/19 02:16:11;;;;;;;47.90;31.00;;;;;;;1.44;84.15;100569.09;102826;1257;1003736;-67
2023/11/19 02:18:38;;;;;;;44.30;30.20;;;;;;;1.43;84.33;100565.63;102674;1253;1003771;-66
2023/11/19 02:21:06;;;;;;;49.60;30.90;;;;;;;1.43;84.48;100563.92;103236;1253;138566;-67
2023/11/19 02:23:33;;;;;;;50.40;32.50;;;;;;;1.45;84.33;100561.74;103782;1253;109285;-67
2023/11/19 02:26:10;;;;;;;48.80;32.00;;;;;;;1.45;84.35;100559.51;103129;1256;138025;-67
2023/11/19 02:28:38;;;;;;;52.10;33.10;;;;;;;1.51;84.73;100554.77;103403;1257;96868;-67
2023/11/19 02:31:09;;;;;;;51.90;32.40;;;;;;;1.53;84.67;100548.45;103348;1256;107154;-67
2023/11/19 02:33:36;;;;;;;51.20;33.20;;;;;;;1.60;84.76;100554.66;102810;1253;1003919;-67
2023/11/19 02:36:03;;;;;;;53.70;34.50;;;;;;;1.59;84.38;100550.02;103384;1253;109919;-68
2023/11/19 02:38:30;;;;;;;51.00;33.60;;;;;;;1.57;84.43;100542.64;103220;1253;137817;-67
2023/11/19 02:40:58;;;;;;;48.80;32.40;;;;;;;1.48;84.20;100541.37;103495;1253;1002415;-69
2023/11/19 02:43:25;;;;;;;48.20;32.30;;;;;;;1.44;84.38;100544.42;103297;1257;108458;-67
2023/11/19 02:45:55;;;;;;;50.90;32.40;;;;;;;1.39;84.40;100546.42;103124;1253;139545;-67
2023/11/19 02:48:22;;;;;;;50.80;30.80;;;;;;;1.34;84.46;100540.20;103281;1253;110414;-69
2023/11/19 02:50:49;;;;;;;49.30;30.70;;;;;;;1.29;84.59;100532.28;102481;1253;1003050;-67
2023/11/19 02:53:17;;;;;;;46.90;30.10;;;;;;;1.24;84.68;100527.93;103391;1253;96413;-68
2023/11/19 02:55:48;;;;;;;44.80;29.00;;;;;;;1.18;84.75;100521.36;103250;1256;138531;-68
2023/11/19 02:58:23;;;;;;;43.20;28.10;;;;;;;1.12;85.05;100507.11;103329;1258;96441;-68
2023/11/19 03:01:43;;;;;;;44.60;28.50;;;;;;;1.07;85.18;100501.73;103653;1249;109599;31
2023/11/19 03:04:12;;;;;;;41.30;26.40;;;;;;;1.03;85.34;100499.46;102522;1265;107505;-67
2023/11/19 03:06:39;;;;;;;48.30;29.20;;;;;;;1.02;85.58;100495.16;102881;1263;96476;-68
2023/11/19 03:09:10;;;;;;;46.20;30.20;;;;;;;0.97;85.56;100493.23;102707;1261;138821;-67
2023/11/19 03:11:37;;;;;;;50.50;30.60;;;;;;;0.90;85.77;100493.50;102114;1261;1002978;-66
2023/11/19 03:14:03;;;;;;;46.90;30.20;;;;;;;0.84;86.09;100490.52;102867;1263;138779;-66
2023/11/19 03:16:31;;;;;;;50.90;31.40;;;;;;;0.79;86.06;100486.89;102775;1261;108944;-66
2023/11/19 03:18:57;;;;;;;53.60;31.00;;;;;;;0.73;86.28;100481.00;102816;1261;96496;-67
2023/11/19 03:21:31;;;;;;;51.00;30.90;;;;;;;0.70;86.44;100474.95;101343;1263;1003665;-67
2023/11/19 03:23:59;;;;;;;51.10;29.10;;;;;;;0.68;86.65;100471.69;102584;1264;96357;-67
2023/11/19 03:26:26;;;;;;;48.00;29.10;;;;;;;0.68;86.78;100463.81;102744;1263;139057;-65
2023/11/19 03:28:54;;;;;;;50.10;28.70;;;;;;;0.70;86.98;100464.52;102940;1263;107615;-66
2023/11/19 03:31:21;;;;;;;45.70;27.40;;;;;;;0.73;87.08;100461.48;103013;1263;96468;-67
2023/11/19 03:33:48;;;;;;;45.10;28.20;;;;;;;0.77;87.16;100457.42;102827;1263;138167;-67
2023/11/19 03:36:14;;;;;;;48.50;30.10;;;;;;;0.79;87.17;100458.30;102935;1258;96463;-68
2023/11/19 03:38:42;;;;;;;46.50;29.10;;;;;;;0.79;87.13;100458.13;102847;1261;137512;-67
2023/11/19 03:41:14;;;;;;;46.10;29.40;;;;;;;0.75;87.04;100456.03;102931;1263;107155;-67
2023/11/19 03:43:41;;;;;;;46.30;29.60;;;;;;;0.73;87.06;100451.21;102850;1263;96599;-67
2023/11/19 03:46:18;;;;;;;44.90;27.90;;;;;;;0.69;87.08;100446.88;102810;1264;110003;-67
2023/11/19 03:48:46;;;;;;;47.70;29.30;;;;;;;0.65;87.19;100450.27;102817;1263;96452;-67
2023/11/19 03:51:15;;;;;;;44.00;27.20;;;;;;;0.61;87.25;100445.95;102831;1263;139471;-67
2023/11/19 03:53:41;;;;;;;41.20;26.30;;;;;;;0.59;87.52;100440.47;102919;1263;108214;-67
2023/11/19 03:56:11;;;;;;;38.40;25.00;;;;;;;0.61;87.58;100435.68;102859;1258;138568;-66
2023/11/19 03:58:38;;;;;;;40.70;25.20;;;;;;;0.63;87.71;100428.16;103362;1259;106654;-67
2023/11/19 04:01:05;;;;;;;43.20;27.50;;;;;;;0.63;87.58;100417.39;102958;1261;96593;-67
2023/11/19 04:03:32;;;;;;;43.10;27.00;;;;;;;0.65;87.66;100418.09;102813;1262;138718;-67
2023/11/19 04:06:00;;;;;;;40.70;25.50;;;;;;;0.67;87.57;100415.89;102718;1259;109799;-69
2023/11/19 04:08:26;;;;;;;39.70;25.20;;;;;;;0.69;87.67;100414.19;101144;1259;1002950;-68
2023/11/19 04:10:53;;;;;;;38.80;26.60;;;;;;;0.69;87.53;100408.88;102911;1258;108163;-68
2023/11/19 04:13:20;;;;;;;40.60;25.80;;;;;;;0.67;87.39;100401.52;102907;1262;96670;-68
2023/11/19 04:15:47;;;;;;;39.90;26.20;;;;;;;0.62;87.30;100392.05;102084;1263;1002876;-68
2023/11/19 04:18:14;;;;;;;40.70;27.10;;;;;;;0.56;87.18;100390.98;102861;1263;107313;-69
2023/11/19 04:20:42;;;;;;;39.80;26.10;;;;;;;0.49;87.28;100388.66;102871;1263;137723;-68
2023/11/19 04:23:08;;;;;;;37.60;25.30;;;;;;;0.44;87.40;100387.59;102927;1272;108341;-69
2023/11/19 04:25:38;;;;;;;38.40;25.40;;;;;;;0.39;87.66;100381.39;102826;1260;96464;-67
2023/11/19 04:28:06;;;;;;;40.70;25.20;;;;;;;0.36;87.76;100378.42;103053;1260;138967;-66
2023/11/19 04:30:33;;;;;;;39.40;25.20;;;;;;;0.33;88.01;100369.66;102238;1263;1003044;-69
2023/11/19 04:33:00;;;;;;;38.90;25.50;;;;;;;0.31;88.18;100368.62;102124;1263;1003004;-67
2023/11/19 04:35:27;;;;;;;39.70;25.60;;;;;;;0.31;88.32;100364.52;102946;1262;108589;-67
2023/11/19 04:37:57;;;;;;;38.60;24.00;;;;;;;0.31;88.43;100362.13;102120;1263;1002736;-66
2023/11/19 04:40:24;;;;;;;39.90;24.40;;;;;;;0.27;88.51;100357.47;102998;1263;110010;-67
2023/11/19 04:42:50;;;;;;;39.10;24.10;;;;;;;0.24;88.61;100355.05;102911;1264;107594;-67
2023/11/19 04:45:17;;;;;;;36.70;23.80;;;;;;;0.24;88.66;100359.33;102862;1261;139067;-68
2023/11/19 04:47:44;;;;;;;36.90;23.30;;;;;;;0.27;88.97;100354.90;102814;1261;107927;-66
2023/11/19 04:50:12;;;;;;;40.20;25.40;;;;;;;0.31;88.98;100356.65;102861;1263;138685;-66
2023/11/19 04:52:42;;;;;;;39.10;25.90;;;;;;;0.33;89.16;100354.44;103006;1263;109046;-67
2023/11/19 04:55:14;;;;;;;40.20;26.20;;;;;;;0.31;88.89;100345.87;103049;1263;107127;-67
2023/11/19 04:57:41;;;;;;;40.10;26.20;;;;;;;0.25;88.81;100343.09;103371;1263;137995;-67
2023/11/19 05:00:11;;;;;;;39.60;25.50;;;;;;;0.19;88.86;100343.54;102971;1260;109034;-67
2023/11/19 05:02:40;;;;;;;39.60;24.90;;;;;;;0.16;88.99;100339.20;102890;1259;138799;-67
2023/11/19 05:05:09;;;;;;;40.10;24.40;;;;;;;0.12;89.07;100338.83;102122;1263;1003271;-67
2023/11/19 05:07:37;;;;;;;36.90;24.00;;;;;;;0.10;89.36;100335.21;102940;1261;108192;-68
2023/11/19 05:10:05;;;;;;;37.50;24.40;;;;;;;0.08;89.38;100328.52;102792;1263;138268;-67
2023/11/19 05:12:32;;;;;;;37.80;23.70;;;;;;;0.06;89.53;100325.09;103024;1263;106612;-65
2023/11/19 05:15:00;;;;;;;39.10;24.20;;;;;;;0.07;89.70;100318.59;102929;1264;138367;-67
2023/11/19 05:17:27;;;;;;;39.70;24.40;;;;;;;0.06;89.81;100313.12;102937;1258;110924;-67
2023/11/19 05:19:54;;;;;;;36.90;24.00;;;;;;;0.07;90.07;100314.50;102073;1257;1003395;-66
2023/11/19 05:22:21;;;;;;;38.70;23.30;;;;;;;0.08;89.99;100309.55;102323;1262;1003250;-69
2023/11/19 05:24:49;;;;;;;36.50;23.40;;;;;;;0.12;90.08;100309.59;102941;1262;107521;-68
2023/11/19 05:27:16;;;;;;;40.30;25.00;;;;;;;0.11;90.04;100295.73;102739;1264;139381;-67
2023/11/19 05:29:43;;;;;;;44.70;26.40;;;;;;;0.17;90.07;100300.77;102796;1263;109140;-66
2023/11/19 05:32:11;;;;;;;44.30;27.50;;;;;;;0.17;90.01;100299.20;102245;1261;1002986;-67
2023/11/19 05:34:38;;;;;;;42.60;24.40;;;;;;;0.14;90.09;100298.49;102954;1263;96332;-67
2023/11/19 05:37:18;;;;;;;43.00;24.50;;;;;;;0.12;90.15;100295.73;102916;1260;108395;-69
2023/11/19 05:39:47;;;;;;;43.10;24.80;;;;;;;0.11;90.19;100298.46;102785;1261;138492;-68
2023/11/19 05:42:13;;;;;;;39.40;24.20;;;;;;;0.11;90.36;100296.07;102911;1263;110733;-68
2023/11/19 05:44:40;;;;;;;40.10;24.50;;;;;;;0.13;90.44;100290.95;102013;1261;1003377;-69
2023/11/19 05:47:08;;;;;;;42.00;24.30;;;;;;;0.15;90.36;100294.05;102082;1261;1003791;-68
2023/11/19 05:49:35;;;;;;;40.60;25.90;;;;;;;0.14;90.41;100291.66;102909;1261;108725;-68
2023/11/19 05:52:03;;;;;;;43.00;27.10;;;;;;;0.14;90.51;100286.35;102754;1261;137872;-68
2023/11/19 05:54:31;;;;;;;44.70;26.50;;;;;;;0.13;90.46;100280.02;103075;1261;109495;-68
2023/11/19 05:56:58;;;;;;;43.20;25.50;;;;;;;0.09;90.59;100284.42;102735;1259;137926;-67
2023/11/19 05:59:25;;;;;;;39.70;24.20;;;;;;;0.05;90.67;100284.56;102933;1261;96480;-68
2023/11/19 06:01:52;;;;;;;38.80;23.30;;;;;;;0.01;90.59;100287.59;102797;1263;139720;-68
2023/11/19 06:04:19;;;;;;;38.00;23.60;;;;;;;-0.03;90.71;100288.38;102981;1257;96450;-67
2023/11/19 06:06:46;;;;;;;35.70;22.00;;;;;;;-0.02;90.88;100290.45;102926;1257;108994;-67
2023/11/19 06:09:13;;;;;;;37.50;22.50;;;;;;;-0.00;91.00;100287.56;102753;1258;138773;-68
2023/11/19 06:11:40;;;;;;;37.10;23.70;;;;;;;0.01;91.00;100288.80;101338;1264;1003216;-68
2023/11/19 06:14:07;;;;;;;40.70;24.90;;;;;;;-0.00;90.91;100283.12;101409;1263;1003352;-67
2023/11/19 06:16:34;;;;;;;40.30;24.20;;;;;;;-0.01;91.02;100286.35;102962;1263;96602;-68
2023/11/19 06:19:01;;;;;;;34.70;21.40;;;;;;;-0.04;91.09;100285.64;102928;1259;109749;-68
2023/11/19 06:21:28;;;;;;;33.60;20.10;;;;;;;-0.07;90.96;100279.63;102795;1262;139249;-68
2023/11/19 06:23:55;;;;;;;30.00;18.80;;;;;;;-0.08;91.05;100273.47;102976;1257;96995;-67
2023/11/19 06:26:23;;;;;;;33.20;19.90;;;;;;;-0.08;91.16;100269.02;102192;1262;1002923;-68
2023/11/19 06:28:50;;;;;;;31.30;19.60;;;;;;;-0.05;91.21;100262.90;102873;1257;96448;-66
2023/11/19 06:31:16;;;;;;;29.90;18.70;;;;;;;-0.04;90.99;100270.27;102898;1257;109984;-67
2023/11/19 06:33:43;;;;;;;26.50;17.80;;;;;;;-0.06;90.69;100264.77;102876;1263;139113;-67
2023/11/19 06:36:11;;;;;;;28.50;19.00;;;;;;;-0.08;90.61;100265.77;103047;1258;96459;-66
2023/11/19 06:38:38;;;;;;;27.60;17.10;;;;;;;-0.15;90.54;100250.84;102194;1262;1002667;-67
2023/11/19 06:41:09;;;;;;;25.20;16.00;;;;;;;-0.16;90.46;100245.54;102217;1261;1003715;-69
2023/11/19 06:43:37;;;;;;;22.00;14.20;;;;;;;-0.17;90.50;100237.84;102825;1263;110027;-69
2023/11/19 06:46:15;;;;;;;18.90;12.60;;;;;;;-0.17;90.71;100235.45;102908;1259;138485;-69
2023/11/19 06:48:43;;;;;;;17.80;11.70;;;;;;;-0.13;90.41;100233.77;102830;1257;96585;-68
2023/11/19 06:51:10;;;;;;;18.10;12.20;;;;;;;-0.12;90.23;100231.90;102745;1257;138114;-68
2023/11/19 06:53:37;;;;;;;20.00;13.80;;;;;;;-0.11;90.11;100226.96;103059;1264;96322;-68
2023/11/19 06:56:06;;;;;;;17.80;13.50;;;;;;;-0.09;90.00;100221.51;102967;1261;137830;-66
2023/11/19 06:58:34;;;;;;;20.50;14.10;;;;;;;-0.06;90.22;100221.20;103358;1257;107654;-65
2023/11/19 07:01:01;;;;;;;15.90;11.80;;;;;;;-0.09;89.96;100223.56;101823;1257;1003385;-68
2023/11/19 07:03:28;;;;;;;19.80;12.60;;;;;;;-0.12;89.98;100219.94;102940;1260;138740;-68
2023/11/19 07:05:56;;;;;;;17.40;11.90;;;;;;;-0.16;90.10;100220.08;102991;1258;96750;-68
2023/11/19 07:08:23;;;;;;;17.70;12.20;;;;;;;-0.18;90.14;100213.20;102799;1257;138726;-68
2023/11/19 07:10:50;;;;;;;17.20;12.60;;;;;;;-0.19;90.44;100208.76;102167;1257;1003017;-67
2023/11/19 07:13:16;;;;;;;17.00;12.50;;;;;;;-0.17;90.49;100211.00;102965;1258;96335;-68
2023/11/19 07:15:43;;;;;;;17.10;12.20;;;;;;;-0.18;90.46;100207.39;102693;1261;152845;-66
2023/11/19 07:18:11;;;;;;;17.50;13.20;;;;;;;-0.20;90.52;100204.27;102825;1261;96490;-66
2023/11/19 07:20:39;;;;;;;17.80;13.00;;;;;;;-0.22;90.44;100203.07;103185;1260;138329;-67
2023/11/19 07:23:06;;;;;;;17.00;11.80;;;;;;;-0.29;90.53;100201.64;102006;1261;1003354;-67
2023/11/19 07:25:34;;;;;;;16.20;11.40;;;;;;;-0.31;90.68;100202.14;102141;1262;1003814;-65
2023/11/19 07:28:04;;;;;;;11.70;9.60;;;;;;;-0.32;90.90;100202.98;102792;1263;138567;-67
2023/11/19 07:30:31;;;;;;;12.70;9.40;;;;;;;-0.34;90.62;100207.40;102999;1258;96575;-67
2023/11/19 07:32:58;;;;;;;12.80;10.30;;;;;;;-0.38;90.57;100201.87;103078;1257;138170;-68
2023/11/19 07:35:25;;;;;;;12.70;9.90;;;;;;;-0.38;90.56;100193.32;102400;1257;1003413;-68
2023/11/19 07:37:52;;;;;;;14.00;10.80;;;;;;;-0.37;90.80;100189.41;102943;1257;138067;-66
2023/11/19 07:40:20;;;;;;;15.80;12.40;;;;;;;-0.35;90.63;100186.55;102952;1260;107467;-66
2023/11/19 07:42:47;;;;;;;15.60;12.40;;;;;;;-0.34;90.56;100183.48;102111;1261;1003421;-66
2023/11/19 07:45:14;;;;;;;14.50;10.70;;;;;;;-0.33;90.50;100181.10;102871;1261;139132;-67
2023/11/19 07:47:41;;;;;;;15.80;11.00;;;;;;;-0.34;90.36;100172.21;102767;1263;107394;-67
2023/11/19 07:50:09;;;;;;;13.10;10.20;;;;;;;-0.30;90.49;100166.78;103231;1259;139416;-67
2023/11/19 07:52:36;;;;;;;14.10;10.80;;;;;;;-0.24;90.16;100162.04;103804;1260;107080;-66
2023/11/19 07:55:05;;;;;;;14.20;10.50;;;;;;;-0.19;90.16;100157.13;103400;1261;96585;-66
2023/11/19 07:57:32;;;;;;;14.50;11.60;;;;;;;-0.13;90.12;100151.92;102198;1263;1003448;-67
2023/11/19 08:00:00;;;;;;;15.20;11.80;;;;;;;-0.08;89.88;100153.48;103278;1258;107520;-66
2023/11/19 08:02:28;;;;;;;15.80;12.80;;;;;;;-0.04;89.63;100151.13;102718;1258;1003190;-67
2023/11/19 08:04:55;;;;;;;18.10;13.40;;;;;;;-0.02;89.51;100148.58;102273;1257;1003496;-69
2023/11/19 08:07:22;;;;;;;15.30;11.80;;;;;;;-0.03;89.52;100145.84;103019;1263;96544;-67
2023/11/19 08:09:49;;;;;;;15.50;11.90;;;;;;;-0.03;89.43;100145.49;103639;1257;138666;-66
2023/11/19 08:12:17;;;;;;;14.90;11.50;;;;;;;-0.01;89.51;100140.73;102920;1260;107797;-67
2023/11/19 08:14:45;;;;;;;15.00;11.50;;;;;;;0.05;89.55;100142.50;102782;1263;138657;-66
2023/11/19 08:17:11;;;;;;;15.70;12.20;;;;;;;0.10;89.23;100142.02;103253;1257;106771;-67
2023/11/19 08:19:38;;;;;;;16.70;12.90;;;;;;;0.14;89.37;100136.08;102967;1262;96468;-68
2023/11/19 08:22:05;;;;;;;16.70;13.10;;;;;;;0.20;89.26;100128.95;103262;1257;137564;-67
2023/11/19 08:24:32;;;;;;;18.30;13.40;;;;;;;0.20;88.85;100129.11;102496;1257;1015815;-68
2023/11/19 08:26:59;;;;;;;17.50;13.00;;;;;;;0.15;88.80;100117.09;102938;1261;138001;-69
2023/11/19 08:29:29;;;;;;;17.90;12.90;;;;;;;0.17;89.15;100111.48;102930;1263;107520;-68
2023/11/19 08:31:56;;;;;;;17.00;12.60;;;;;;;0.18;89.15;100111.48;102882;1257;140483;-68
2023/11/19 08:34:23;;;;;;;15.30;12.50;;;;;;;0.21;89.17;100111.36;103163;1259;109920;-70
2023/11/19 08:36:53;;;;;;;16.80;13.60;;;;;;;0.26;89.01;100112.41;102949;1260;108654;-68
2023/11/19 08:39:20;;;;;;;20.00;14.70;;;;;;;0.32;89.06;100113.30;102782;1263;138098;-69
2023/11/19 08:41:47;;;;;;;19.10;14.60;;;;;;;0.42;89.23;100107.90;102948;1258;107639;-67
2023/11/19 08:44:14;;;;;;;19.20;14.30;;;;;;;0.47;88.94;100105.02;102086;1259;1002682;-68
2023/11/19 08:46:46;;;;;;;21.70;14.90;;;;;;;0.46;88.73;100108.44;102963;1263;110501;-68
2023/11/19 08:49:13;;;;;;;20.40;13.60;;;;;;;0.39;88.65;100107.72;102147;1263;1003367;-68
2023/11/19 08:51:40;;;;;;;18.00;13.40;;;;;;;0.38;88.88;100109.25;102800;1259;139633;-66
2023/11/19 08:54:07;;;;;;;16.40;12.30;;;;;;;0.37;88.81;100104.46;102126;1263;1003606;-69
2023/11/19 08:56:35;;;;;;;18.30;12.80;;;;;;;0.36;88.79;100098.45;102870;1259;139548;-71
2023/11/19 08:59:02;;;;;;;20.70;14.10;;;;;;;0.41;88.96;100100.38;102921;1258;110699;-72
2023/11/19 09:01:29;;;;;;;17.70;13.30;;;;;;;0.47;88.93;100094.08;102937;1257;106671;-72
2023/11/19 09:03:57;;;;;;;18.50;14.60;;;;;;;0.59;88.88;100082.35;101365;1263;1015031;-72
2023/11/19 09:06:24;;;;;;;19.90;14.40;;;;;;;0.68;88.69;100073.83;102151;1260;1003098;-72
2023/11/19 09:08:51;;;;;;;19.40;13.40;;;;;;;0.71;88.25;100072.48;102846;1259;138444;-72
2023/11/19 09:11:19;;;;;;;18.00;13.20;;;;;;;0.75;88.29;100067.21;102960;1260;110395;-72
2023/11/19 09:13:46;;;;;;;17.60;13.10;;;;;;;0.77;88.28;100062.77;102187;1258;1002744;-72
2023/11/19 09:16:13;;;;;;;17.30;12.80;;;;;;;0.78;88.13;100056.77;102945;1261;97096;-71
2023/11/19 09:18:40;;;;;;;17.30;13.20;;;;;;;0.84;88.04;100042.59;102953;1260;107655;-71
2023/11/19 09:21:08;;;;;;;20.10;14.90;;;;;;;0.94;87.77;100040.75;102949;1257;139506;-72
2023/11/19 09:23:38;;;;;;;19.50;14.80;;;;;;;1.00;87.62;100038.88;102843;1263;110477;-71
2023/11/19 09:26:07;;;;;;;20.50;14.90;;;;;;;1.00;87.08;100035.97;102893;1259;138880;-70
2023/11/19 09:28:33;;;;;;;21.10;14.80;;;;;;;0.96;86.97;100037.00;102877;1260;96810;-70
2023/11/19 09:31:00;;;;;;;19.30;14.50;;;;;;;0.87;87.23;100036.26;102800;1260;107940;-70
2023/11/19 09:33:27;;;;;;;21.50;14.20;;;;;;;0.79;87.57;100033.67;102778;1262;138373;-71
2023/11/19 09:35:54;;;;;;;21.50;15.70;;;;;;;0.75;87.57;100031.95;102925;1261;109098;-70
2023/11/19 09:38:21;;;;;;;18.10;14.00;;;;;;;0.72;87.93;100025.42;102787;1263;139128;-71
2023/11/19 09:40:48;;;;;;;17.40;13.60;;;;;;;0.69;88.24;100020.27;102907;1263;96563;-71
2023/11/19 09:43:16;;;;;;;20.30;14.80;;;;;;;0.70;88.35;100023.35;102865;1259;108487;-70
2023/11/19 09:45:51;;;;;;;20.10;15.00;;;;;;;0.69;88.28;100023.52;102018;1261;1002598;-71
2023/11/19 09:48:19;;;;;;;22.00;15.80;;;;;;;0.68;88.36;100020.61;102943;1263;111394;-70
2023/11/19 09:50:47;;;;;;;22.20;16.80;;;;;;;0.68;88.44;100019.76;103154;1259;137745;-70
2023/11/19 09:53:15;;;;;;;24.50;18.00;;;;;;;0.65;88.43;100013.41;101687;1258;1003691;-71
2023/11/19 09:55:42;;;;;;;22.30;16.20;;;;;;;0.61;88.50;100005.70;102162;1263;1003471;-71
2023/11/19 09:58:10;;;;;;;19.80;14.90;;;;;;;0.56;88.73;100007.41;102825;1263;138837;-70
2023/11/19 10:00:37;;;;;;;19.90;15.30;;;;;;;0.58;89.07;100003.48;102937;1259;109701;-70
2023/11/19 10:03:05;;;;;;;21.90;15.60;;;;;;;0.59;89.17;99998.70;102901;1257;139076;-71
2023/11/19 10:05:32;;;;;;;20.70;14.90;;;;;;;0.60;88.99;99993.04;103053;1257;96507;-71
2023/11/19 10:07:59;;;;;;;22.60;16.60;;;;;;;0.64;89.15;99981.94;102816;1258;138574;-71
2023/11/19 10:10:26;;;;;;;24.10;16.70;;;;;;;0.68;89.31;99977.31;103024;1257;96758;-70
2023/11/19 10:12:55;;;;;;;21.50;16.20;;;;;;;0.71;89.19;99971.69;102248;1257;1003407;-69
2023/11/19 10:15:26;;;;;;;22.30;16.80;;;;;;;0.77;89.12;99971.89;102883;1257;138179;-70
2023/11/19 10:17:56;;;;;;;21.10;15.80;;;;;;;0.78;88.82;99965.05;102872;1257;96355;-70
2023/11/19 10:20:22;;;;;;;21.90;16.00;;;;;;;0.79;88.79;99960.77;102880;1259;138611;-71
2023/11/19 10:22:53;;;;;;;22.80;16.20;;;;;;;0.80;88.85;99957.52;102947;1261;96497;-71
2023/11/19 10:25:28;;;;;;;20.80;15.80;;;;;;;0.77;88.69;99954.61;102261;1257;1003476;-70
2023/11/19 10:27:56;;;;;;;19.90;14.50;;;;;;;0.72;88.85;99948.77;102934;1258;138503;-70
2023/11/19 10:30:26;;;;;;;19.60;15.00;;;;;;;0.73;89.00;99948.25;102966;1259;96385;-71
2023/11/19 10:33:07;;;;;;;22.60;14.60;;;;;;;0.71;89.03;99944.64;103083;1263;139013;-70
2023/11/19 10:35:36;;;;;;;20.40;14.70;;;;;;;0.69;88.94;99936.77;102998;1258;96467;-70
2023/11/19 10:38:14;;;;;;;22.00;15.90;;;;;;;0.68;88.85;99937.28;102898;1257;137824;-71
2023/11/19 10:40:44;;;;;;;22.70;16.70;;;;;;;0.67;89.08;99932.83;102989;1260;106775;-71
2023/11/19 10:43:11;;;;;;;23.70;17.50;;;;;;;0.66;89.07;99923.08;102964;1258;96519;-71
2023/11/19 10:45:39;;;;;;;23.80;17.60;;;;;;;0.66;89.32;99917.09;102778;1259;137342;-71
2023/11/19 10:48:07;;;;;;;21.80;16.70;;;;;;;0.67;89.62;99916.06;102931;1263;96561;-71
2023/11/19 10:50:36;;;;;;;22.30;16.20;;;;;;;0.65;89.47;99908.36;103010;1259;139280;-71
2023/11/19 10:53:04;;;;;;;20.80;15.10;;;;;;;0.64;89.52;99899.64;103052;1257;107189;-71
2023/11/19 10:55:32;;;;;;;22.00;16.10;;;;;;;0.64;89.62;99891.08;102225;1258;1003216;-72
2023/11/19 10:58:03;;;;;;;22.10;15.50;;;;;;;0.65;89.61;99885.09;102972;1257;139596;-72
2023/11/19 11:00:34;;;;;;;22.80;16.50;;;;;;;0.70;89.79;99879.61;102917;1259;96423;-72
2023/11/19 11:03:15;;;;;;;23.60;16.90;;;;;;;0.73;89.77;99876.40;102128;1257;1002765;-71
2023/11/19 11:05:43;;;;;;;23.70;17.60;;;;;;;0.74;89.61;99868.36;103002;1259;107543;-71